sensor_id;sensor_type;location;lat;lon;timestamp;pressure;altitude;pressure_sealevel;temperature;humidity
50282;BME280;36176;51.506;10.272;2023-05-03T00:01:37;100618.19;;;3.94;85.05
50282;BME280;36176;51.506;10.272;2023-05-03T00:04:04;100622.59;;;3.89;84.96
50282;BME280;36176;51.506;10.272;2023-05-03T00:06:31;100622.59;;;3.84;85.46
50282;BME280;36176;51.506;10.272;2023-05-03T00:08:59;100611.25;;;3.79;86.56
50282;BME280;36176;51.506;10.272;2023-05-03T00:11:26;100613.00;;;3.74;87.27
50282;BME280;36176;51.506;10.272;2023-05-03T00:13:52;100614.75;;;3.65;87.58
50282;BME280;36176;51.506;10.272;2023-05-03T00:16:19;100607.75;;;3.56;87.59
50282;BME280;36176;51.506;10.272;2023-05-03T00:18:47;100617.38;;;3.48;87.13
50282;BME280;36176;51.506;10.272;2023-05-03T00:21:15;100617.38;;;3.38;87.27
50282;BME280;36176;51.506;10.272;2023-05-03T00:23:42;100612.13;;;3.29;87.96
50282;BME280;36176;51.506;10.272;2023-05-03T00:26:09;100617.34;;;3.28;89.33
50282;BME280;36176;51.506;10.272;2023-05-03T00:28:36;100620.84;;;3.20;89.06
50282;BME280;36176;51.506;10.272;2023-05-03T00:31:09;100617.34;;;3.11;89.06
50282;BME280;36176;51.506;10.272;2023-05-03T00:33:37;100613.84;;;3.04;89.06
50282;BME280;36176;51.506;10.272;2023-05-03T00:36:22;100612.94;;;2.96;89.80
50282;BME280;36176;51.506;10.272;2023-05-03T00:38:49;100609.41;;;2.85;89.82
50282;BME280;36176;51.506;10.272;2023-05-03T00:41:16;100612.91;;;2.74;89.48
50282;BME280;36176;51.506;10.272;2023-05-03T00:43:43;100609.41;;;2.66;90.05
50282;BME280;36176;51.506;10.272;2023-05-03T00:46:10;100602.38;;;2.58;90.26
50282;BME280;36176;51.506;10.272;2023-05-03T00:48:45;100613.66;;;2.49;90.10
50282;BME280;36176;51.506;10.272;2023-05-03T00:51:14;100616.25;;;2.41;90.59
50282;BME280;36176;51.506;10.272;2023-05-03T00:53:42;100609.25;;;2.34;90.62
50282;BME280;36176;51.506;10.272;2023-05-03T00:56:09;100605.72;;;2.27;90.94
50282;BME280;36176;51.506;10.272;2023-05-03T00:58:37;100613.53;;;2.17;91.02
50282;BME280;36176;51.506;10.272;2023-05-03T01:01:06;100618.72;;;2.09;90.90
50282;BME280;36176;51.506;10.272;2023-05-03T01:03:35;100624.78;;;2.03;91.36
50282;BME280;36176;51.506;10.272;2023-05-03T01:08:42;100623.81;;;1.89;91.54
50282;BME280;36176;51.506;10.272;2023-05-03T01:11:18;100617.72;;;1.87;91.29
50282;BME280;36176;51.506;10.272;2023-05-03T01:13:54;100620.28;;;1.79;92.42
50282;BME280;36176;51.506;10.272;2023-05-03T01:16:34;100617.63;;;1.75;91.84
50282;BME280;36176;51.506;10.272;2023-05-03T01:19:04;100618.47;;;1.69;92.01
50282;BME280;36176;51.506;10.272;2023-05-03T01:21:33;100614.94;;;1.61;92.51
50282;BME280;36176;51.506;10.272;2023-05-03T01:24:06;100616.63;;;1.57;92.63
50282;BME280;36176;51.506;10.272;2023-05-03T01:26:37;100616.59;;;1.51;93.09
50282;BME280;36176;51.506;10.272;2023-05-03T01:29:04;100620.00;;;1.45;93.24
50282;BME280;36176;51.506;10.272;2023-05-03T01:31:35;100615.63;;;1.40;93.40
50282;BME280;36176;51.506;10.272;2023-05-03T01:37:03;100624.25;;;1.31;93.89
50282;BME280;36176;51.506;10.272;2023-05-03T01:39:48;100629.44;;;1.28;93.25
50282;BME280;36176;51.506;10.272;2023-05-03T01:42:16;100635.47;;;1.21;93.68
50282;BME280;36176;51.506;10.272;2023-05-03T01:44:44;100629.31;;;1.14;93.54
50282;BME280;36176;51.506;10.272;2023-05-03T01:47:12;100633.59;;;1.08;93.60
50282;BME280;36176;51.506;10.272;2023-05-03T01:49:40;100639.66;;;1.05;93.34
50282;BME280;36176;51.506;10.272;2023-05-03T01:52:07;100638.78;;;1.04;93.71
50282;BME280;36176;51.506;10.272;2023-05-03T01:54:34;100639.63;;;1.02;93.80
50282;BME280;36176;51.506;10.272;2023-05-03T01:57:01;100636.97;;;0.97;93.61
50282;BME280;36176;51.506;10.272;2023-05-03T01:59:28;100639.53;;;0.93;93.56
50282;BME280;36176;51.506;10.272;2023-05-03T02:01:55;100644.72;;;0.90;93.76
50282;BME280;36176;51.506;10.272;2023-05-03T02:04:22;100651.63;;;0.86;93.76
50282;BME280;36176;51.506;10.272;2023-05-03T02:06:49;100653.31;;;0.81;94.41
50282;BME280;36176;51.506;10.272;2023-05-03T02:09:17;100659.34;;;0.75;94.05
50282;BME280;36176;51.506;10.272;2023-05-03T02:11:44;100647.13;;;0.70;94.18
50282;BME280;36176;51.506;10.272;2023-05-03T02:14:11;100652.28;;;0.65;94.38
50282;BME280;36176;51.506;10.272;2023-05-03T02:16:38;100657.44;;;0.62;94.70
50282;BME280;36176;51.506;10.272;2023-05-03T02:19:08;100653.00;;;0.55;94.85
50282;BME280;36176;51.506;10.272;2023-05-03T02:21:36;100659.91;;;0.50;94.27
50282;BME280;36176;51.506;10.272;2023-05-03T02:24:04;100656.38;;;0.45;94.44
50282;BME280;36176;51.506;10.272;2023-05-03T02:26:30;100652.84;;;0.42;94.72
50282;BME280;36176;51.506;10.272;2023-05-03T02:28:57;100655.47;;;0.41;94.43
50282;BME280;36176;51.506;10.272;2023-05-03T02:31:25;100655.41;;;0.36;94.07
50282;BME280;36176;51.506;10.272;2023-05-03T02:33:52;100657.94;;;0.33;94.79
50282;BME280;36176;51.506;10.272;2023-05-03T02:36:20;100664.03;;;0.32;94.79
50282;BME280;36176;51.506;10.272;2023-05-03T02:38:47;100653.56;;;0.31;95.20
50282;BME280;36176;51.506;10.272;2023-05-03T02:41:14;100660.50;;;0.27;94.98
50282;BME280;36176;51.506;10.272;2023-05-03T02:43:41;100660.44;;;0.24;94.95
50282;BME280;36176;51.506;10.272;2023-05-03T02:46:08;100655.13;;;0.18;95.55
50282;BME280;36176;51.506;10.272;2023-05-03T02:48:35;100664.63;;;0.13;95.40
50282;BME280;36176;51.506;10.272;2023-05-03T02:51:02;100662.78;;;0.07;95.27
50282;BME280;36176;51.506;10.272;2023-05-03T02:53:29;100666.22;;;0.05;95.66
50282;BME280;36176;51.506;10.272;2023-05-03T02:55:56;100664.47;;;0.01;96.40
50282;BME280;36176;51.506;10.272;2023-05-03T02:58:23;100658.31;;;-0.05;95.56
50282;BME280;36176;51.506;10.272;2023-05-03T03:00:50;100663.47;;;-0.06;95.47
50282;BME280;36176;51.506;10.272;2023-05-03T03:03:18;100661.63;;;-0.13;95.61
50282;BME280;36176;51.506;10.272;2023-05-03T03:05:45;100672.81;;;-0.20;95.86
50282;BME280;36176;51.506;10.272;2023-05-03T03:08:12;100672.78;;;-0.22;95.84
50282;BME280;36176;51.506;10.272;2023-05-03T03:10:39;100676.25;;;-0.23;96.03
50282;BME280;36176;51.506;10.272;2023-05-03T03:13:06;100677.94;;;-0.25;95.58
50282;BME280;36176;51.506;10.272;2023-05-03T03:15:33;100677.94;;;-0.25;96.34
50282;BME280;36176;51.506;10.272;2023-05-03T03:18:00;100674.47;;;-0.24;96.21
50282;BME280;36176;51.506;10.272;2023-05-03T03:20:27;100681.34;;;-0.29;95.84
50282;BME280;36176;51.506;10.272;2023-05-03T03:22:54;100685.66;;;-0.33;95.81
50282;BME280;36176;51.506;10.272;2023-05-03T03:25:21;100670.81;;;-0.37;96.02
50282;BME280;36176;51.506;10.272;2023-05-03T03:27:48;100678.63;;;-0.37;96.12
50282;BME280;36176;51.506;10.272;2023-05-03T03:30:15;100676.88;;;-0.38;96.26
50282;BME280;36176;51.506;10.272;2023-05-03T03:32:42;100681.16;;;-0.41;96.29
50282;BME280;36176;51.506;10.272;2023-05-03T03:35:09;100683.72;;;-0.45;96.61
50282;BME280;36176;51.506;10.272;2023-05-03T03:37:37;100688.06;;;-0.44;97.15
50282;BME280;36176;51.506;10.272;2023-05-03T03:40:05;100686.34;;;-0.43;97.54
50282;BME280;36176;51.506;10.272;2023-05-03T03:42:33;100696.66;;;-0.49;96.84
50282;BME280;36176;51.506;10.272;2023-05-03T03:45:00;100700.91;;;-0.54;97.50
50282;BME280;36176;51.506;10.272;2023-05-03T03:47:27;100698.25;;;-0.57;96.90
50282;BME280;36176;51.506;10.272;2023-05-03T03:49:54;100704.34;;;-0.55;97.20
50282;BME280;36176;51.506;10.272;2023-05-03T03:52:21;100704.28;;;-0.58;97.32
50282;BME280;36176;51.506;10.272;2023-05-03T03:54:48;100702.56;;;-0.58;97.51
50282;BME280;36176;51.506;10.272;2023-05-03T03:57:15;100706.94;;;-0.55;97.42
50282;BME280;36176;51.506;10.272;2023-05-03T03:59:42;100710.50;;;-0.52;97.20
50282;BME280;36176;51.506;10.272;2023-05-03T04:02:09;100712.31;;;-0.48;96.87
50282;BME280;36176;51.506;10.272;2023-05-03T04:04:36;100713.19;;;-0.46;97.03
50282;BME280;36176;51.506;10.272;2023-05-03T04:07:03;100709.78;;;-0.43;97.32
50282;BME280;36176;51.506;10.272;2023-05-03T04:09:30;100710.63;;;-0.44;97.01
50282;BME280;36176;51.506;10.272;2023-05-03T04:11:57;100714.16;;;-0.40;96.48
50282;BME280;36176;51.506;10.272;2023-05-03T04:14:24;100708.13;;;-0.38;97.04
50282;BME280;36176;51.506;10.272;2023-05-03T04:16:51;100706.47;;;-0.31;97.30
50282;BME280;36176;51.506;10.272;2023-05-03T04:19:18;100707.53;;;-0.20;96.96
50282;BME280;36176;51.506;10.272;2023-05-03T04:21:51;100698.97;;;-0.13;96.93
50282;BME280;36176;51.506;10.272;2023-05-03T04:24:19;100707.81;;;-0.03;97.07
50282;BME280;36176;51.506;10.272;2023-05-03T04:26:45;100712.31;;;0.07;96.95
50282;BME280;36176;51.506;10.272;2023-05-03T04:29:12;100702.09;;;0.19;96.68
50282;BME280;36176;51.506;10.272;2023-05-03T04:31:40;100709.19;;;0.30;96.27
50282;BME280;36176;51.506;10.272;2023-05-03T04:34:07;100711.94;;;0.39;95.50
50282;BME280;36176;51.506;10.272;2023-05-03T04:36:36;100711.25;;;0.54;95.63
50282;BME280;36176;51.506;10.272;2023-05-03T04:39:03;100706.25;;;0.71;94.84
50282;BME280;36176;51.506;10.272;2023-05-03T04:41:31;100704.63;;;0.80;94.72
50282;BME280;36176;51.506;10.272;2023-05-03T04:43:59;100715.22;;;0.93;94.46
50282;BME280;36176;51.506;10.272;2023-05-03T04:46:26;100719.91;;;1.24;93.89
50282;BME280;36176;51.506;10.272;2023-05-03T04:48:53;100711.47;;;1.50;93.28
50282;BME280;36176;51.506;10.272;2023-05-03T04:51:20;100711.88;;;1.98;92.42
50282;BME280;36176;51.506;10.272;2023-05-03T04:53:47;100716.72;;;2.74;90.70
50282;BME280;36176;51.506;10.272;2023-05-03T04:56:14;100713.47;;;3.72;87.89
50282;BME280;36176;51.506;10.272;2023-05-03T04:58:41;100717.75;;;4.60;84.59
50282;BME280;36176;51.506;10.272;2023-05-03T05:01:10;100717.41;;;5.37;81.62
50282;BME280;36176;51.506;10.272;2023-05-03T05:03:37;100722.22;;;6.06;78.79
50282;BME280;36176;51.506;10.272;2023-05-03T05:06:04;100718.84;;;6.77;76.51
50282;BME280;36176;51.506;10.272;2023-05-03T05:08:33;100725.13;;;7.35;73.75
50282;BME280;36176;51.506;10.272;2023-05-03T05:11:01;100724.47;;;7.79;71.97
50282;BME280;36176;51.506;10.272;2023-05-03T05:13:30;100722.97;;;8.17;70.10
50282;BME280;36176;51.506;10.272;2023-05-03T05:15:57;100732.56;;;8.71;68.97
50282;BME280;36176;51.506;10.272;2023-05-03T05:18:24;100725.09;;;9.33;67.76
50282;BME280;36176;51.506;10.272;2023-05-03T05:20:51;100727.47;;;9.85;65.10
50282;BME280;36176;51.506;10.272;2023-05-03T05:23:18;100734.34;;;10.28;65.32
50282;BME280;36176;51.506;10.272;2023-05-03T05:25:46;100737.47;;;10.76;64.13
50282;BME280;36176;51.506;10.272;2023-05-03T05:28:13;100733.47;;;11.24;61.16
50282;BME280;36176;51.506;10.272;2023-05-03T05:30:40;100733.97;;;11.65;58.47
50282;BME280;36176;51.506;10.272;2023-05-03T05:33:07;100732.78;;;12.03;56.42
50282;BME280;36176;51.506;10.272;2023-05-03T05:35:34;100737.75;;;12.39;55.76
50282;BME280;36176;51.506;10.272;2023-05-03T05:38:01;100740.41;;;12.89;55.14
50282;BME280;36176;51.506;10.272;2023-05-03T05:40:28;100740.19;;;13.44;54.72
50282;BME280;36176;51.506;10.272;2023-05-03T05:42:55;100739.66;;;13.80;51.96
50282;BME280;36176;51.506;10.272;2023-05-03T05:45:22;100738.44;;;14.09;50.29
50282;BME280;36176;51.506;10.272;2023-05-03T05:47:49;100741.00;;;14.33;50.00
50282;BME280;36176;51.506;10.272;2023-05-03T05:50:17;100734.41;;;14.63;50.67
50282;BME280;36176;51.506;10.272;2023-05-03T05:52:45;100735.63;;;14.96;47.43
50282;BME280;36176;51.506;10.272;2023-05-03T05:55:12;100729.56;;;14.92;45.83
50282;BME280;36176;51.506;10.272;2023-05-03T05:57:40;100723.03;;;14.79;45.97
50282;BME280;36176;51.506;10.272;2023-05-03T06:00:07;100730.88;;;15.02;47.02
50282;BME280;36176;51.506;10.272;2023-05-03T06:02:40;100738.13;;;15.38;45.56
50282;BME280;36176;51.506;10.272;2023-05-03T06:05:07;100734.06;;;15.67;44.64
50282;BME280;36176;51.506;10.272;2023-05-03T06:07:35;100734.22;;;15.83;45.26
50282;BME280;36176;51.506;10.272;2023-05-03T06:10:02;100741.19;;;16.40;46.34
50282;BME280;36176;51.506;10.272;2023-05-03T06:12:30;100738.69;;;16.89;42.44
50282;BME280;36176;51.506;10.272;2023-05-03T06:14:57;100740.75;;;17.33;42.24
50282;BME280;36176;51.506;10.272;2023-05-03T06:17:28;100745.25;;;17.80;41.80
50282;BME280;36176;51.506;10.272;2023-05-03T06:19:56;100744.59;;;18.08;39.63
50282;BME280;36176;51.506;10.272;2023-05-03T06:22:23;100752.50;;;18.25;40.68
50282;BME280;36176;51.506;10.272;2023-05-03T06:24:50;100747.44;;;18.65;38.98
50282;BME280;36176;51.506;10.272;2023-05-03T06:27:17;100745.88;;;19.06;37.54
50282;BME280;36176;51.506;10.272;2023-05-03T06:29:44;100744.34;;;19.16;37.62
50282;BME280;36176;51.506;10.272;2023-05-03T06:32:12;100745.09;;;19.47;37.78
50282;BME280;36176;51.506;10.272;2023-05-03T06:34:39;100742.84;;;19.68;37.03
50282;BME280;36176;51.506;10.272;2023-05-03T06:37:05;100746.09;;;19.87;36.98
50282;BME280;36176;51.506;10.272;2023-05-03T06:39:32;100745.53;;;20.09;35.44
50282;BME280;36176;51.506;10.272;2023-05-03T06:41:59;100745.88;;;20.17;36.14
50282;BME280;36176;51.506;10.272;2023-05-03T06:44:26;100734.41;;;20.41;34.10
50282;BME280;36176;51.506;10.272;2023-05-03T06:46:53;100733.72;;;20.25;35.54
50282;BME280;36176;51.506;10.272;2023-05-03T06:49:20;100743.75;;;20.88;33.96
50282;BME280;36176;51.506;10.272;2023-05-03T06:51:48;100738.13;;;21.30;33.20
50282;BME280;36176;51.506;10.272;2023-05-03T06:54:14;100731.09;;;21.53;32.66
50282;BME280;36176;51.506;10.272;2023-05-03T06:56:41;100730.88;;;21.30;31.54
50282;BME280;36176;51.506;10.272;2023-05-03T06:59:08;100732.25;;;20.46;31.90
50282;BME280;36176;51.506;10.272;2023-05-03T07:01:35;100723.25;;;20.20;32.08
50282;BME280;36176;51.506;10.272;2023-05-03T07:04:02;100723.47;;;20.17;32.99
50282;BME280;36176;51.506;10.272;2023-05-03T07:06:29;100726.81;;;20.73;33.74
50282;BME280;36176;51.506;10.272;2023-05-03T07:09:03;100717.41;;;21.30;33.58
50282;BME280;36176;51.506;10.272;2023-05-03T07:11:30;100723.47;;;21.21;31.98
50282;BME280;36176;51.506;10.272;2023-05-03T07:13:57;100720.50;;;21.00;32.52
50282;BME280;36176;51.506;10.272;2023-05-03T07:16:24;100722.19;;;21.27;31.41
50282;BME280;36176;51.506;10.272;2023-05-03T07:18:51;100724.53;;;21.18;32.50
50282;BME280;36176;51.506;10.272;2023-05-03T07:21:18;100721.47;;;21.61;33.59
50282;BME280;36176;51.506;10.272;2023-05-03T07:23:44;100727.09;;;21.82;29.63
50282;BME280;36176;51.506;10.272;2023-05-03T07:26:11;100725.50;;;22.04;29.89
50282;BME280;36176;51.506;10.272;2023-05-03T07:28:38;100724.84;;;22.00;30.58
50282;BME280;36176;51.506;10.272;2023-05-03T07:31:05;100729.88;;;22.18;28.82
50282;BME280;36176;51.506;10.272;2023-05-03T07:33:34;100724.91;;;22.24;28.90
50282;BME280;36176;51.506;10.272;2023-05-03T07:36:03;100721.34;;;22.35;27.10
50282;BME280;36176;51.506;10.272;2023-05-03T07:38:30;100719.97;;;22.76;29.57
50282;BME280;36176;51.506;10.272;2023-05-03T07:40:57;100719.16;;;22.40;27.39
50282;BME280;36176;51.506;10.272;2023-05-03T07:43:24;100715.81;;;22.25;30.16
50282;BME280;36176;51.506;10.272;2023-05-03T07:45:51;100710.31;;;22.38;28.00
50282;BME280;36176;51.506;10.272;2023-05-03T07:48:18;100717.75;;;22.59;29.88
50282;BME280;36176;51.506;10.272;2023-05-03T07:50:45;100707.66;;;23.30;30.10
50282;BME280;36176;51.506;10.272;2023-05-03T07:53:12;100708.63;;;23.06;28.72
50282;BME280;36176;51.506;10.272;2023-05-03T07:55:39;100712.69;;;22.54;29.92
50282;BME280;36176;51.506;10.272;2023-05-03T07:58:07;100701.88;;;23.34;28.09
50282;BME280;36176;51.506;10.272;2023-05-03T08:00:34;100709.97;;;23.34;28.26
50282;BME280;36176;51.506;10.272;2023-05-03T08:03:01;100710.94;;;23.00;26.92
50282;BME280;36176;51.506;10.272;2023-05-03T08:05:30;100716.88;;;23.27;27.85
50282;BME280;36176;51.506;10.272;2023-05-03T08:07:57;100716.84;;;23.39;29.67
50282;BME280;36176;51.506;10.272;2023-05-03T08:10:24;100711.56;;;23.26;27.04
50282;BME280;36176;51.506;10.272;2023-05-03T08:12:50;100714.28;;;23.14;27.72
50282;BME280;36176;51.506;10.272;2023-05-03T08:15:17;100706.59;;;23.65;28.04
50282;BME280;36176;51.506;10.272;2023-05-03T08:17:44;100701.47;;;22.25;27.11
50282;BME280;36176;51.506;10.272;2023-05-03T08:20:12;100701.31;;;22.96;29.32
50282;BME280;36176;51.506;10.272;2023-05-03T08:22:39;100707.59;;;23.52;25.66
50282;BME280;36176;51.506;10.272;2023-05-03T08:25:06;100698.41;;;23.32;27.73
50282;BME280;36176;51.506;10.272;2023-05-03T08:27:33;100702.50;;;23.16;27.20
50282;BME280;36176;51.506;10.272;2023-05-03T08:30:00;100696.19;;;23.15;28.46
50282;BME280;36176;51.506;10.272;2023-05-03T08:32:28;100693.06;;;23.76;26.67
50282;BME280;36176;51.506;10.272;2023-05-03T08:34:56;100695.84;;;24.50;28.11
50282;BME280;36176;51.506;10.272;2023-05-03T08:37:23;100687.00;;;25.00;25.25
50282;BME280;36176;51.506;10.272;2023-05-03T08:39:49;100690.47;;;24.81;24.73
50282;BME280;36176;51.506;10.272;2023-05-03T08:42:17;100683.69;;;24.12;26.85
50282;BME280;36176;51.506;10.272;2023-05-03T08:44:45;100687.66;;;24.61;25.93
50282;BME280;36176;51.506;10.272;2023-05-03T08:47:15;100690.19;;;24.21;26.24
50282;BME280;36176;51.506;10.272;2023-05-03T08:49:43;100689.97;;;23.81;26.66
50282;BME280;36176;51.506;10.272;2023-05-03T08:52:10;100689.56;;;23.19;26.14
50282;BME280;36176;51.506;10.272;2023-05-03T08:54:37;100690.78;;;23.38;27.78
50282;BME280;36176;51.506;10.272;2023-05-03T08:57:08;100682.97;;;23.78;28.14
50282;BME280;36176;51.506;10.272;2023-05-03T08:59:45;100688.59;;;23.86;27.00
50282;BME280;36176;51.506;10.272;2023-05-03T09:02:13;100687.28;;;23.69;27.41
50282;BME280;36176;51.506;10.272;2023-05-03T09:04:40;100681.94;;;23.90;27.16
50282;BME280;36176;51.506;10.272;2023-05-03T09:07:07;100687.28;;;24.34;26.99
50282;BME280;36176;51.506;10.272;2023-05-03T09:09:34;100677.81;;;24.07;27.78
50282;BME280;36176;51.506;10.272;2023-05-03T09:12:02;100686.81;;;24.71;26.60
50282;BME280;36176;51.506;10.272;2023-05-03T09:14:29;100682.88;;;25.36;25.69
50282;BME280;36176;51.506;10.272;2023-05-03T09:16:58;100680.69;;;24.99;24.71
50282;BME280;36176;51.506;10.272;2023-05-03T09:19:57;100671.19;;;24.53;26.30
50282;BME280;36176;51.506;10.272;2023-05-03T09:22:27;100670.00;;;24.46;26.56
50282;BME280;36176;51.506;10.272;2023-05-03T09:24:54;100668.44;;;24.11;26.02
50282;BME280;36176;51.506;10.272;2023-05-03T09:27:22;100669.69;;;23.75;28.08
50282;BME280;36176;51.506;10.272;2023-05-03T09:29:49;100666.81;;;23.33;25.77
50282;BME280;36176;51.506;10.272;2023-05-03T09:32:16;100676.16;;;23.40;30.13
50282;BME280;36176;51.506;10.272;2023-05-03T09:34:44;100677.22;;;23.60;27.10
50282;BME280;36176;51.506;10.272;2023-05-03T09:37:11;100677.41;;;23.80;27.63
50282;BME280;36176;51.506;10.272;2023-05-03T09:39:44;100678.00;;;23.17;28.25
50282;BME280;36176;51.506;10.272;2023-05-03T09:42:11;100677.00;;;23.41;26.59
50282;BME280;36176;51.506;10.272;2023-05-03T09:44:48;100678.28;;;23.25;28.79
50282;BME280;36176;51.506;10.272;2023-05-03T09:47:17;100675.81;;;23.11;26.69
50282;BME280;36176;51.506;10.272;2023-05-03T09:49:51;100674.56;;;23.49;30.80
50282;BME280;36176;51.506;10.272;2023-05-03T09:52:18;100678.41;;;23.67;28.72
50282;BME280;36176;51.506;10.272;2023-05-03T09:54:45;100675.03;;;23.43;30.24
50282;BME280;36176;51.506;10.272;2023-05-03T09:57:12;100676.63;;;22.89;28.53
50282;BME280;36176;51.506;10.272;2023-05-03T09:59:40;100669.31;;;22.33;30.79
50282;BME280;36176;51.506;10.272;2023-05-03T10:02:07;100664.69;;;22.58;28.86
50282;BME280;36176;51.506;10.272;2023-05-03T10:04:37;100662.00;;;21.87;28.92
50282;BME280;36176;51.506;10.272;2023-05-03T10:07:06;100664.88;;;21.73;29.88
50282;BME280;36176;51.506;10.272;2023-05-03T10:09:34;100663.03;;;21.49;29.14
50282;BME280;36176;51.506;10.272;2023-05-03T10:12:08;100658.88;;;20.57;31.41
50282;BME280;36176;51.506;10.272;2023-05-03T10:14:40;100660.03;;;20.66;32.94
50282;BME280;36176;51.506;10.272;2023-05-03T10:17:10;100655.88;;;20.62;32.97
50282;BME280;36176;51.506;10.272;2023-05-03T10:19:40;100655.31;;;20.69;32.71
50282;BME280;36176;51.506;10.272;2023-05-03T10:22:11;100647.97;;;20.84;33.33
50282;BME280;36176;51.506;10.272;2023-05-03T10:27:48;100644.38;;;20.32;32.09
50282;BME280;36176;51.506;10.272;2023-05-03T10:30:37;100639.84;;;20.07;33.40
50282;BME280;36176;51.506;10.272;2023-05-03T10:35:40;100641.28;;;19.86;32.53
50282;BME280;36176;51.506;10.272;2023-05-03T10:38:18;100633.69;;;19.92;33.27
50282;BME280;36176;51.506;10.272;2023-05-03T10:40:46;100636.69;;;19.46;32.25
50282;BME280;36176;51.506;10.272;2023-05-03T10:45:55;100630.22;;;19.36;32.89
50282;BME280;36176;51.506;10.272;2023-05-03T10:48:22;100627.47;;;19.50;35.25
50282;BME280;36176;51.506;10.272;2023-05-03T10:50:49;100628.97;;;19.69;36.00
50282;BME280;36176;51.506;10.272;2023-05-03T10:56:02;100632.28;;;19.45;33.75
50282;BME280;36176;51.506;10.272;2023-05-03T10:58:32;100623.53;;;19.15;37.91
50282;BME280;36176;51.506;10.272;2023-05-03T11:01:01;100619.88;;;19.30;35.92
50282;BME280;36176;51.506;10.272;2023-05-03T11:03:32;100622.88;;;19.25;36.40
50282;BME280;36176;51.506;10.272;2023-05-03T11:06:00;100624.16;;;19.47;35.09
50282;BME280;36176;51.506;10.272;2023-05-03T11:08:28;100621.91;;;19.12;35.34
50282;BME280;36176;51.506;10.272;2023-05-03T11:10:57;100616.94;;;19.20;37.97
50282;BME280;36176;51.506;10.272;2023-05-03T11:13:25;100613.81;;;19.53;34.64
50282;BME280;36176;51.506;10.272;2023-05-03T11:15:53;100613.56;;;19.98;34.33
50282;BME280;36176;51.506;10.272;2023-05-03T11:18:20;100615.69;;;19.80;34.25
50282;BME280;36176;51.506;10.272;2023-05-03T11:20:48;100616.03;;;20.01;34.64
50282;BME280;36176;51.506;10.272;2023-05-03T11:23:15;100620.88;;;19.96;34.32
50282;BME280;36176;51.506;10.272;2023-05-03T11:25:42;100610.56;;;20.03;37.70
50282;BME280;36176;51.506;10.272;2023-05-03T11:28:09;100605.28;;;20.01;36.99
50282;BME280;36176;51.506;10.272;2023-05-03T11:30:36;100606.88;;;20.04;35.51
50282;BME280;36176;51.506;10.272;2023-05-03T11:33:03;100603.91;;;20.47;35.01
50282;BME280;36176;51.506;10.272;2023-05-03T11:35:30;100599.84;;;20.28;32.85
50282;BME280;36176;51.506;10.272;2023-05-03T11:37:58;100600.34;;;19.95;35.68
50282;BME280;36176;51.506;10.272;2023-05-03T11:40:25;100595.31;;;19.49;35.36
50282;BME280;36176;51.506;10.272;2023-05-03T11:42:53;100596.13;;;19.64;34.36
50282;BME280;36176;51.506;10.272;2023-05-03T11:45:21;100594.31;;;19.64;35.57
50282;BME280;36176;51.506;10.272;2023-05-03T11:47:49;100602.34;;;19.79;34.69
50282;BME280;36176;51.506;10.272;2023-05-03T11:50:17;100597.19;;;20.01;33.96
50282;BME280;36176;51.506;10.272;2023-05-03T11:52:44;100590.50;;;19.81;36.19
50282;BME280;36176;51.506;10.272;2023-05-03T11:55:11;100593.25;;;19.67;34.79
50282;BME280;36176;51.506;10.272;2023-05-03T11:57:38;100583.06;;;19.85;36.83
50282;BME280;36176;51.506;10.272;2023-05-03T12:00:12;100584.72;;;19.87;34.96
50282;BME280;36176;51.506;10.272;2023-05-03T12:02:40;100582.97;;;19.86;33.48
50282;BME280;36176;51.506;10.272;2023-05-03T12:05:07;100573.28;;;19.71;36.05
50282;BME280;36176;51.506;10.272;2023-05-03T12:07:36;100568.28;;;19.65;35.46
50282;BME280;36176;51.506;10.272;2023-05-03T12:10:13;100576.44;;;19.90;36.30
50282;BME280;36176;51.506;10.272;2023-05-03T12:12:50;100576.13;;;20.21;35.36
50282;BME280;36176;51.506;10.272;2023-05-03T12:17:56;100570.75;;;20.72;33.25
50282;BME280;36176;51.506;10.272;2023-05-03T12:20:26;100566.78;;;20.65;34.65
50282;BME280;36176;51.506;10.272;2023-05-03T12:22:59;100565.50;;;20.57;34.70
50282;BME280;36176;51.506;10.272;2023-05-03T12:25:30;100567.53;;;20.03;34.32
50282;BME280;36176;51.506;10.272;2023-05-03T12:28:00;100560.44;;;20.02;35.56
50282;BME280;36176;51.506;10.272;2023-05-03T12:30:45;100564.28;;;19.58;34.78
50282;BME280;36176;51.506;10.272;2023-05-03T12:33:12;100555.81;;;19.64;36.04
50282;BME280;36176;51.506;10.272;2023-05-03T12:35:42;100563.84;;;19.78;36.58
50282;BME280;36176;51.506;10.272;2023-05-03T12:38:12;100564.34;;;19.70;37.22
50282;BME280;36176;51.506;10.272;2023-05-03T12:40:42;100557.66;;;19.36;34.92
50282;BME280;36176;51.506;10.272;2023-05-03T12:43:11;100546.22;;;19.47;36.08
50282;BME280;36176;51.506;10.272;2023-05-03T12:45:38;100552.66;;;19.44;35.46
50282;BME280;36176;51.506;10.272;2023-05-03T12:48:06;100552.16;;;19.65;34.92
50282;BME280;36176;51.506;10.272;2023-05-03T12:50:34;100548.47;;;19.80;38.65
50282;BME280;36176;51.506;10.272;2023-05-03T12:53:04;100545.78;;;19.80;35.80
50282;BME280;36176;51.506;10.272;2023-05-03T12:55:35;100544.16;;;19.63;32.28
50282;BME280;36176;51.506;10.272;2023-05-03T12:58:08;100544.50;;;19.59;34.26
50282;BME280;36176;51.506;10.272;2023-05-03T13:00:37;100543.31;;;19.50;32.98
50282;BME280;36176;51.506;10.272;2023-05-03T13:03:15;100537.72;;;19.53;35.46
50282;BME280;36176;51.506;10.272;2023-05-03T13:05:45;100534.88;;;19.42;34.98
50282;BME280;36176;51.506;10.272;2023-05-03T13:08:13;100531.69;;;19.49;33.34